Time;durP1;ratioP1;P1;durP2;ratioP2;P2;SDS_P1;SDS_P2;PMS_P1;PMS_P2;Temp;Humidity;BMP_temperature;BMP_pressure;BME280_temperature;BME280_humidity;BME280_pressure;Samples;Min_cycle;Max_cycle;Signal;HPM_P1;HPM_P2
2022/11/30 00:01:10;;;;;;;19.55;9.07;;;5.60;99.90;;;;;;5029138;28;19978;-89
2022/11/30 00:03:36;;;;;;;17.27;8.50;;;5.60;99.90;;;;;;5021427;28;20033;-89
2022/11/30 00:06:06;;;;;;;18.37;8.37;;;5.50;99.90;;;;;;5027815;28;20492;-89
2022/11/30 00:08:35;;;;;;;19.55;9.13;;;5.50;99.90;;;;;;5045279;28;20294;-89
2022/11/30 00:11:07;;;;;;;14.55;8.32;;;5.50;99.90;;;;;;5019514;28;20042;-89
2022/11/30 00:13:33;;;;;;;16.58;8.68;;;5.50;99.90;;;;;;5043135;28;20041;-89
2022/11/30 00:16:02;;;;;;;15.90;8.57;;;5.50;99.90;;;;;;5030149;28;20650;-89
2022/11/30 00:18:28;;;;;;;17.65;8.68;;;5.40;99.90;;;;;;5016093;28;20156;-89
2022/11/30 00:20:56;;;;;;;16.67;9.13;;;5.40;99.90;;;;;;5032357;28;20050;-89
2022/11/30 00:23:21;;;;;;;15.57;7.43;;;5.40;99.90;;;;;;5031154;28;20077;-89
2022/11/30 00:25:47;;;;;;;18.00;8.73;;;5.40;99.90;;;;;;5017516;28;20085;-89
2022/11/30 00:28:13;;;;;;;17.17;8.17;;;5.40;99.90;;;;;;5036913;28;20045;-89
2022/11/30 00:30:38;;;;;;;15.83;7.70;;;5.40;99.90;;;;;;5034434;28;20120;-89
2022/11/30 00:33:07;;;;;;;16.07;8.03;;;5.40;99.90;;;;;;5019675;28;20037;-88
2022/11/30 00:35:35;;;;;;;21.63;9.23;;;5.50;99.90;;;;;;5063639;28;20126;-89
2022/11/30 00:38:04;;;;;;;14.32;7.85;;;5.50;99.90;;;;;;5012763;28;20040;-88
2022/11/30 00:40:30;;;;;;;15.25;7.38;;;5.60;99.90;;;;;;5026746;28;20120;-88
2022/11/30 00:43:04;;;;;;;16.87;8.50;;;5.60;99.90;;;;;;5022517;28;20072;-88
2022/11/30 00:45:30;;;;;;;15.52;8.43;;;5.60;99.90;;;;;;5034403;28;20041;-88
2022/11/30 00:47:58;;;;;;;15.75;8.43;;;5.60;99.90;;;;;;5019920;28;20037;-88
2022/11/30 00:50:24;;;;;;;16.70;8.70;;;5.70;99.90;;;;;;5038809;28;20053;-88
2022/11/30 00:52:50;;;;;;;15.53;7.77;;;5.70;99.90;;;;;;5006378;28;20076;-89
2022/11/30 00:55:21;;;;;;;17.53;8.93;;;5.70;99.90;;;;;;5029163;28;20177;-87
2022/11/30 00:57:47;;;;;;;18.10;8.85;;;5.80;99.90;;;;;;5039201;28;20041;-89
2022/11/30 01:00:16;;;;;;;22.07;8.93;;;5.90;99.90;;;;;;5030735;28;20033;-88
2022/11/30 01:02:42;;;;;;;18.17;7.97;;;5.80;99.90;;;;;;5018382;28;20033;-89
2022/11/30 01:05:08;;;;;;;16.80;8.40;;;5.80;99.90;;;;;;5028886;28;20710;-88
2022/11/30 01:07:33;;;;;;;15.30;8.47;;;5.90;99.90;;;;;;5011750;28;20124;-88
2022/11/30 01:09:59;;;;;;;15.97;8.30;;;5.90;99.90;;;;;;5018502;28;20117;-87
2022/11/30 01:12:24;;;;;;;18.33;8.60;;;5.90;99.90;;;;;;5029934;28;20582;-88
2022/11/30 01:14:50;;;;;;;17.00;9.13;;;5.90;99.90;;;;;;5023037;28;20065;-88
2022/11/30 01:17:16;;;;;;;16.97;8.47;;;5.90;99.90;;;;;;5041282;28;20084;-88
2022/11/30 01:19:43;;;;;;;17.02;8.65;;;5.90;99.90;;;;;;5019922;28;20046;-89
2022/11/30 01:22:09;;;;;;;20.40;9.37;;;6.00;99.90;;;;;;5034510;28;20042;-88
2022/11/30 01:24:34;;;;;;;16.50;8.97;;;6.00;99.90;;;;;;5049011;28;20533;-88
2022/11/30 01:27:00;;;;;;;20.70;9.87;;;6.00;99.90;;;;;;5028393;28;20041;-88
2022/11/30 01:29:26;;;;;;;19.93;10.10;;;6.00;99.90;;;;;;5029262;28;20513;-88
2022/11/30 01:32:00;;;;;;;20.33;10.33;;;6.00;99.90;;;;;;5030977;28;20034;-88
2022/11/30 01:34:31;;;;;;;16.38;8.88;;;6.10;99.90;;;;;;5031962;28;20338;-89
2022/11/30 01:36:56;;;;;;;17.23;7.88;;;6.20;99.90;;;;;;5023751;28;20041;-88
2022/11/30 01:39:26;;;;;;;22.27;9.83;;;6.10;99.90;;;;;;5031437;28;20037;-89
2022/11/30 01:41:59;;;;;;;19.73;9.35;;;6.10;99.90;;;;;;5041593;28;20055;-88
2022/11/30 01:44:33;;;;;;;24.50;10.30;;;6.20;99.90;;;;;;5027666;28;20044;-88
2022/11/30 01:47:04;;;;;;;20.90;8.40;;;6.10;99.90;;;;;;5020616;28;20049;-89
2022/11/30 01:49:38;;;;;;;20.73;9.43;;;6.20;99.90;;;;;;5029063;28;20030;-88
2022/11/30 01:52:13;;;;;;;19.10;9.38;;;6.20;99.90;;;;;;5023833;28;20533;-88
2022/11/30 01:54:45;;;;;;;18.98;9.60;;;6.20;99.90;;;;;;5023738;28;20100;-88
2022/11/30 01:57:48;;;;;;;16.65;9.32;;;6.20;99.90;;;;;;5025319;28;20038;-88
2022/11/30 02:00:15;;;;;;;23.50;9.30;;;6.20;99.90;;;;;;5020203;28;20111;-88
2022/11/30 02:02:50;;;;;;;;;;;6.30;99.90;;;;;;5011792;28;20104;-88
2022/11/30 02:05:17;;;;;;;20.33;9.10;;;6.20;99.90;;;;;;5033008;28;19990;-88
2022/11/30 02:07:46;;;;;;;18.73;8.07;;;6.30;99.90;;;;;;5030378;28;20105;-88
2022/11/30 02:10:28;;;;;;;19.88;9.57;;;6.30;99.90;;;;;;5019040;28;20159;-88
2022/11/30 02:13:02;;;;;;;19.73;9.68;;;6.30;99.90;;;;;;5037476;28;20041;-88
2022/11/30 02:15:37;;;;;;;20.13;9.93;;;6.30;99.90;;;;;;5028560;28;20045;-88
2022/11/30 02:18:13;;;;;;;17.70;8.80;;;6.30;99.90;;;;;;5053293;28;20140;-89
2022/11/30 02:21:12;;;;;;;17.30;9.07;;;6.30;99.90;;;;;;5036226;28;20045;-88
2022/11/30 02:24:01;;;;;;;18.27;9.40;;;6.30;99.90;;;;;;5028983;28;20171;-89
2022/11/30 02:26:52;;;;;;;18.73;8.70;;;6.30;99.90;;;;;;5006261;28;20037;-88
2022/11/30 02:29:39;;;;;;;18.20;8.73;;;6.30;99.90;;;;;;5026553;28;20037;-88
2022/11/30 02:32:13;;;;;;;19.92;9.77;;;6.30;99.90;;;;;;5019851;28;20581;-88
2022/11/30 02:34:41;;;;;;;21.85;9.05;;;6.20;99.90;;;;;;5025170;28;20045;-88
2022/11/30 02:37:10;;;;;;;17.80;8.88;;;6.20;99.90;;;;;;5031756;28;20104;-88
2022/11/30 02:39:36;;;;;;;17.95;8.80;;;6.20;99.90;;;;;;5009101;28;20619;-88
2022/11/30 02:42:01;;;;;;;16.10;7.87;;;6.20;99.90;;;;;;5018225;28;20049;-88
2022/11/30 02:44:27;;;;;;;17.70;8.40;;;6.10;99.90;;;;;;5027341;28;20099;-88
2022/11/30 02:47:10;;;;;;;19.65;9.45;;;6.10;99.90;;;;;;5024015;28;20112;-89
2022/11/30 02:50:18;;;;;;;15.32;8.32;;;6.10;99.90;;;;;;5027969;28;20041;-88
2022/11/30 02:52:49;;;;;;;21.50;9.52;;;6.10;99.90;;;;;;5023421;28;20045;-88
2022/11/30 02:55:17;;;;;;;17.88;8.60;;;6.00;99.90;;;;;;5025458;28;20462;-88
2022/11/30 02:57:45;;;;;;;16.98;8.18;;;6.00;99.90;;;;;;5003551;28;20080;-88
2022/11/30 03:00:12;;;;;;;19.55;9.38;;;5.90;99.90;;;;;;5006443;28;20033;-88
2022/11/30 03:02:39;;;;;;;15.57;8.27;;;5.90;99.90;;;;;;5016261;28;20084;-88
2022/11/30 03:05:06;;;;;;;17.05;7.55;;;5.80;99.90;;;;;;5031127;28;20037;-88
2022/11/30 03:07:32;;;;;;;18.13;8.05;;;5.70;99.90;;;;;;5007287;28;20630;-88
2022/11/30 03:09:59;;;;;;;16.55;8.45;;;5.70;99.90;;;;;;5005483;28;20594;-88
2022/11/30 03:12:25;;;;;;;16.27;8.05;;;5.60;99.90;;;;;;5022573;28;20128;-89
2022/11/30 03:14:51;;;;;;;21.15;9.32;;;5.50;99.90;;;;;;5010889;28;20397;-88
2022/11/30 03:17:17;;;;;;;15.83;8.40;;;5.50;99.90;;;;;;5024020;28;20123;-88
2022/11/30 03:19:42;;;;;;;18.20;9.35;;;5.50;99.90;;;;;;5005225;28;20076;-88
2022/11/30 03:22:08;;;;;;;18.90;8.90;;;5.40;99.90;;;;;;5004441;28;20074;-88
2022/11/30 03:24:34;;;;;;;17.17;7.78;;;5.40;99.90;;;;;;5009710;28;20463;-88
2022/11/30 03:27:00;;;;;;;12.60;7.27;;;5.40;99.90;;;;;;5027494;28;20711;-88
2022/11/30 03:29:28;;;;;;;14.65;7.43;;;5.30;99.90;;;;;;5022861;28;20082;-88
2022/11/30 03:31:54;;;;;;;14.88;7.75;;;5.30;99.90;;;;;;5005978;28;20038;-88
2022/11/30 03:34:25;;;;;;;16.37;8.00;;;5.30;99.90;;;;;;5029363;28;20453;-88
2022/11/30 03:36:51;;;;;;;19.88;8.15;;;5.20;99.90;;;;;;5003570;28;20093;-88
2022/11/30 03:39:16;;;;;;;17.73;7.63;;;5.10;99.90;;;;;;5028823;28;20073;-88
2022/11/30 03:41:42;;;;;;;17.73;8.27;;;5.10;99.90;;;;;;5015239;28;20044;-88
2022/11/30 03:44:08;;;;;;;14.47;7.83;;;5.00;99.90;;;;;;5006680;28;20041;-88
2022/11/30 03:46:33;;;;;;;24.33;7.50;;;5.00;99.90;;;;;;5026712;28;20103;-88
2022/11/30 03:48:59;;;;;;;15.63;7.33;;;5.00;99.90;;;;;;5009636;28;20037;-88
2022/11/30 03:51:24;;;;;;;27.17;7.80;;;5.00;99.90;;;;;;5012947;28;20029;-88
2022/11/30 03:53:50;;;;;;;23.33;7.93;;;5.00;99.90;;;;;;5034131;28;20044;-88
2022/11/30 03:56:19;;;;;;;22.07;7.97;;;5.00;99.90;;;;;;5033438;28;20042;-87
2022/11/30 03:58:48;;;;;;;23.55;7.28;;;5.00;99.90;;;;;;5031266;28;20069;-88
2022/11/30 04:01:16;;;;;;;20.08;7.50;;;5.00;99.90;;;;;;5035265;28;20080;-88
2022/11/30 04:03:42;;;;;;;28.58;7.97;;;5.00;99.90;;;;;;5032090;28;20413;-88
2022/11/30 04:06:10;;;;;;;23.67;7.07;;;4.90;99.90;;;;;;5011132;28;20616;-88
2022/11/30 04:08:37;;;;;;;24.90;7.00;;;4.90;99.90;;;;;;5015226;28;20179;-88
2022/11/30 04:11:03;;;;;;;24.77;7.30;;;4.80;99.90;;;;;;5027786;28;20109;-88
2022/11/30 04:13:31;;;;;;;25.58;6.75;;;4.70;99.90;;;;;;5044969;28;20119;-88
2022/11/30 04:15:57;;;;;;;21.95;6.85;;;4.60;99.90;;;;;;5010202;28;20041;-88
2022/11/30 04:18:24;;;;;;;20.80;6.57;;;4.60;99.90;;;;;;5009230;28;20037;-87
2022/11/30 04:20:54;;;;;;;16.73;5.72;;;4.60;99.90;;;;;;5029686;28;20112;-88
2022/11/30 04:23:21;;;;;;;15.05;5.88;;;4.60;99.90;;;;;;5025759;28;20305;-88
2022/11/30 04:25:47;;;;;;;13.82;5.80;;;4.60;99.90;;;;;;5027662;28;20050;-88
2022/11/30 04:28:14;;;;;;;15.73;6.68;;;4.50;99.90;;;;;;5035113;28;20119;-88
2022/11/30 04:30:43;;;;;;;12.18;6.60;;;4.60;99.90;;;;;;5027897;28;20033;-88
2022/11/30 04:33:09;;;;;;;;;;;4.60;99.90;;;;;;5017868;28;20528;-88
2022/11/30 04:35:40;;;;;;;13.13;6.20;;;4.60;99.90;;;;;;5034464;28;19971;-88
2022/11/30 04:38:08;;;;;;;13.82;6.45;;;4.60;99.90;;;;;;5006116;28;20037;-89
2022/11/30 04:40:38;;;;;;;11.48;5.75;;;4.60;99.90;;;;;;5012340;28;20417;-87
2022/11/30 04:43:04;;;;;;;11.52;5.60;;;4.60;99.90;;;;;;5022484;28;20512;-88
2022/11/30 04:45:29;;;;;;;12.27;6.97;;;4.60;99.90;;;;;;5014826;28;20158;-88
2022/11/30 04:47:58;;;;;;;10.63;5.93;;;4.50;99.90;;;;;;5013476;28;20041;-88
2022/11/30 04:50:24;;;;;;;9.98;5.80;;;4.60;99.90;;;;;;5029711;28;20037;-88
2022/11/30 04:52:50;;;;;;;12.93;6.50;;;4.50;99.90;;;;;;5014029;28;20528;-88
2022/11/30 04:55:18;;;;;;;14.77;5.90;;;4.50;99.90;;;;;;5023401;28;20607;-87
2022/11/30 04:57:47;;;;;;;14.35;6.93;;;4.50;99.90;;;;;;5010444;28;20067;-88
2022/11/30 05:00:15;;;;;;;11.27;6.13;;;4.50;99.90;;;;;;5012766;28;20033;-88
2022/11/30 05:02:41;;;;;;;10.95;5.95;;;4.50;99.90;;;;;;5036460;28;20536;-88
2022/11/30 05:05:07;;;;;;;11.43;6.60;;;4.50;99.90;;;;;;5030341;28;20040;-88
2022/11/30 05:07:33;;;;;;;12.48;6.60;;;4.50;99.90;;;;;;5030149;28;20312;-88
2022/11/30 05:10:04;;;;;;;12.95;6.60;;;4.60;99.90;;;;;;5031303;28;20041;-87
2022/11/30 05:12:30;;;;;;;18.58;6.90;;;4.60;99.90;;;;;;5031831;28;20383;-88
2022/11/30 05:15:01;;;;;;;13.38;6.22;;;4.70;99.90;;;;;;5029943;28;20087;-88
2022/11/30 05:17:30;;;;;;;12.88;6.70;;;4.70;99.90;;;;;;5019293;28;20049;-88
2022/11/30 05:19:58;;;;;;;12.23;6.35;;;4.80;99.90;;;;;;5041700;28;20041;-88
2022/11/30 05:22:30;;;;;;;12.13;6.68;;;4.80;99.90;;;;;;5019045;28;20037;-88
2022/11/30 05:24:59;;;;;;;12.00;6.43;;;4.80;99.90;;;;;;5028647;28;20041;-88
2022/11/30 05:27:24;;;;;;;12.23;6.80;;;4.80;99.90;;;;;;5013877;28;20567;-88
2022/11/30 05:29:53;;;;;;;13.07;6.63;;;4.90;99.90;;;;;;5005701;28;20038;-88
2022/11/30 05:32:21;;;;;;;12.80;6.85;;;4.90;99.90;;;;;;5029588;28;20049;-88
2022/11/30 05:34:47;;;;;;;12.13;6.45;;;4.90;99.90;;;;;;5022224;28;20168;-88
2022/11/30 05:37:15;;;;;;;12.43;6.20;;;5.00;99.90;;;;;;5022694;28;20084;-88
2022/11/30 05:39:50;;;;;;;10.52;5.53;;;5.00;99.90;;;;;;5022520;28;20506;-88
2022/11/30 05:42:16;;;;;;;12.93;7.63;;;5.10;99.90;;;;;;5025763;28;20041;-88
2022/11/30 05:44:41;;;;;;;15.63;7.03;;;5.10;99.90;;;;;;5030477;28;20037;-88
2022/11/30 05:47:07;;;;;;;14.68;7.88;;;5.10;99.90;;;;;;5029934;28;20069;-88
2022/11/30 05:49:33;;;;;;;14.68;6.78;;;5.10;99.90;;;;;;5005281;28;20125;-88
2022/11/30 05:51:59;;;;;;;11.10;6.20;;;5.10;99.90;;;;;;5032466;28;20255;-88
2022/11/30 05:54:24;;;;;;;14.20;7.97;;;5.00;99.90;;;;;;5029097;28;20250;-88
2022/11/30 05:56:50;;;;;;;20.30;7.83;;;5.10;99.90;;;;;;5026437;28;20502;-88
2022/11/30 05:59:19;;;;;;;13.27;6.93;;;5.10;99.90;;;;;;5021698;28;20101;-88
2022/11/30 06:01:51;;;;;;;15.50;7.45;;;5.10;99.90;;;;;;5030238;28;20136;-88
2022/11/30 06:04:20;;;;;;;16.27;7.43;;;5.20;99.90;;;;;;5029796;28;20520;-88
2022/11/30 06:06:51;;;;;;;15.32;7.90;;;5.20;99.90;;;;;;5026043;28;20134;-88
2022/11/30 06:09:16;;;;;;;13.43;7.15;;;5.20;99.90;;;;;;5007758;28;20097;-88
2022/11/30 06:11:45;;;;;;;15.33;7.87;;;5.20;99.90;;;;;;5007745;28;20098;-88
2022/11/30 06:14:11;;;;;;;14.85;7.50;;;5.30;99.90;;;;;;5011959;28;20091;-88
2022/11/30 06:16:39;;;;;;;14.80;7.57;;;5.30;99.90;;;;;;5030555;28;20046;-88
2022/11/30 06:19:31;;;;;;;15.63;7.90;;;5.40;99.90;;;;;;5002008;28;20124;-88
2022/11/30 06:22:03;;;;;;;19.25;8.25;;;5.40;99.90;;;;;;5027933;28;20052;-88
2022/11/30 06:24:29;;;;;;;15.50;8.48;;;5.40;99.90;;;;;;5034743;28;20069;-88
2022/11/30 06:26:54;;;;;;;14.40;8.03;;;5.40;99.90;;;;;;5022266;28;20700;-87
2022/11/30 06:29:29;;;;;;;20.47;9.90;;;5.40;99.90;;;;;;5014592;28;20048;-89
2022/11/30 06:32:10;;;;;;;19.45;10.90;;;5.50;99.90;;;;;;5023782;28;20080;-89
2022/11/30 06:34:36;;;;;;;20.10;10.13;;;5.50;99.90;;;;;;5020207;28;20040;-89
2022/11/30 06:37:02;;;;;;;21.10;9.47;;;5.50;99.90;;;;;;5022188;28;20555;-88
2022/11/30 06:39:33;;;;;;;19.10;9.35;;;5.60;99.90;;;;;;5027268;28;20536;-89
2022/11/30 06:42:07;;;;;;;20.10;10.15;;;5.60;99.90;;;;;;5028508;28;20053;-89
2022/11/30 06:44:39;;;;;;;20.75;10.02;;;5.60;99.90;;;;;;5012426;28;20076;-89
2022/11/30 06:47:24;;;;;;;22.13;11.25;;;5.60;99.90;;;;;;5011453;28;20038;-88
2022/11/30 06:49:50;;;;;;;29.75;11.80;;;5.70;99.90;;;;;;5026700;28;20116;-89
2022/11/30 06:52:16;;;;;;;23.95;10.98;;;5.70;99.90;;;;;;5003556;28;20113;-89
2022/11/30 06:54:51;;;;;;;26.92;12.65;;;5.70;99.90;;;;;;5032351;28;20041;-89
2022/11/30 06:57:33;;;;;;;29.42;13.93;;;5.70;99.90;;;;;;5024953;28;20482;-89
2022/11/30 07:00:12;;;;;;;33.35;14.85;;;5.80;99.90;;;;;;5004995;28;20036;-89
2022/11/30 07:02:40;;;;;;;28.17;14.13;;;5.80;99.90;;;;;;5025226;28;20045;-89
2022/11/30 07:05:15;;;;;;;25.70;13.52;;;5.80;99.90;;;;;;5023954;28;20049;-89
2022/11/30 07:07:40;;;;;;;29.17;12.73;;;5.80;99.90;;;;;;5024879;28;20087;-89
2022/11/30 07:10:10;;;;;;;28.60;12.57;;;5.80;99.90;;;;;;5010452;28;20294;-89
2022/11/30 07:12:35;;;;;;;20.88;12.02;;;5.90;99.90;;;;;;5027671;28;20042;-89
2022/11/30 07:15:07;;;;;;;24.17;11.17;;;5.90;99.90;;;;;;5011569;28;20034;-89
2022/11/30 07:17:33;;;;;;;26.38;11.68;;;5.90;99.90;;;;;;5009559;28;20053;-89
2022/11/30 07:19:59;;;;;;;24.47;12.57;;;5.90;99.90;;;;;;5019813;28;20458;-88
2022/11/30 07:22:24;;;;;;;22.87;11.93;;;6.00;99.90;;;;;;5027437;28;20037;-88
2022/11/30 07:27:40;;;;;;;23.92;11.27;;;6.00;99.90;;;;;;5036654;28;20299;-88
2022/11/30 07:30:08;;;;;;;22.40;10.82;;;6.00;99.90;;;;;;5011308;28;20042;-88
2022/11/30 07:32:34;;;;;;;24.73;11.70;;;6.00;99.90;;;;;;5008811;28;20145;-87
2022/11/30 07:34:59;;;;;;;23.40;11.40;;;6.10;99.90;;;;;;5021899;28;20038;-87
2022/11/30 07:37:28;;;;;;;23.80;11.20;;;6.10;99.90;;;;;;5026790;28;20041;-88
2022/11/30 07:40:07;;;;;;;27.08;12.05;;;6.10;99.90;;;;;;5022074;28;20287;-88
2022/11/30 07:42:36;;;;;;;24.75;11.13;;;6.10;99.90;;;;;;5033203;28;20049;-89
2022/11/30 07:45:04;;;;;;;29.30;12.38;;;6.10;99.90;;;;;;5020269;28;20493;-89
2022/11/30 07:47:36;;;;;;;29.20;12.30;;;6.10;99.90;;;;;;5035384;28;20044;-88
2022/11/30 07:50:02;;;;;;;30.75;11.70;;;6.10;99.90;;;;;;5027557;28;20037;-88
2022/11/30 07:52:34;;;;;;;29.03;11.33;;;6.10;99.90;;;;;;5027854;28;20037;-87
2022/11/30 07:54:59;;;;;;;28.48;11.77;;;6.20;99.90;;;;;;5004689;28;20299;-88
2022/11/30 07:57:36;;;;;;;29.70;12.20;;;6.10;99.90;;;;;;5029771;28;20121;-88
2022/11/30 08:00:09;;;;;;;24.90;11.52;;;6.20;99.90;;;;;;5024501;28;20553;-89
2022/11/30 08:02:43;;;;;;;28.08;12.25;;;6.30;99.90;;;;;;5033904;28;20046;-89
2022/11/30 08:05:12;;;;;;;33.23;13.43;;;6.20;99.90;;;;;;5024120;28;20103;-88
2022/11/30 08:07:37;;;;;;;27.02;11.18;;;6.30;99.90;;;;;;5029565;28;20045;-89
2022/11/30 08:10:04;;;;;;;32.73;14.33;;;6.30;99.90;;;;;;5028964;28;20061;-88
2022/11/30 08:12:32;;;;;;;33.22;13.18;;;6.30;99.90;;;;;;5029816;28;20104;-89
2022/11/30 08:14:58;;;;;;;30.65;13.18;;;6.30;99.90;;;;;;5007474;28;20117;-88
2022/11/30 08:17:27;;;;;;;36.83;13.63;;;6.40;99.90;;;;;;5017363;28;20045;-89
2022/11/30 08:19:52;;;;;;;29.60;12.75;;;6.30;99.90;;;;;;5033515;28;20097;-88
2022/11/30 08:22:18;;;;;;;32.43;14.03;;;6.30;99.90;;;;;;5016633;28;20080;-89
2022/11/30 08:25:01;;;;;;;34.30;13.90;;;6.20;99.90;;;;;;5032066;28;20670;-88
2022/11/30 08:27:30;;;;;;;29.02;13.05;;;6.30;99.90;;;;;;5039059;28;20048;-88
2022/11/30 08:29:59;;;;;;;31.30;14.15;;;6.30;99.90;;;;;;5041615;28;20037;-88
2022/11/30 08:32:25;;;;;;;27.50;12.25;;;6.30;99.90;;;;;;5019922;28;20037;-88
2022/11/30 08:34:53;;;;;;;29.93;12.47;;;6.40;99.90;;;;;;5001832;28;20048;-88
2022/11/30 08:37:48;;;;;;;28.02;13.32;;;6.30;99.90;;;;;;5032225;28;20037;-88
2022/11/30 08:40:13;;;;;;;25.08;11.13;;;6.40;99.90;;;;;;5007822;28;20049;-88
2022/11/30 08:42:39;;;;;;;31.73;12.60;;;6.40;99.90;;;;;;5014291;28;20382;-88
2022/11/30 08:45:08;;;;;;;31.02;13.27;;;6.40;99.90;;;;;;5034443;28;20057;-89
2022/11/30 08:47:33;;;;;;;33.13;13.15;;;6.40;99.90;;;;;;5028753;28;20505;-88
2022/11/30 08:50:00;;;;;;;29.97;13.30;;;6.50;99.90;;;;;;5013323;28;20057;-88
2022/11/30 08:52:26;;;;;;;;;;;6.40;99.90;;;;;;5016807;28;20065;-88
2022/11/30 08:54:52;;;;;;;25.95;11.35;;;6.50;99.90;;;;;;5035018;28;19925;-89
2022/11/30 08:57:19;;;;;;;29.57;12.00;;;6.50;99.90;;;;;;5031680;28;20048;-88
2022/11/30 08:59:46;;;;;;;31.10;13.23;;;6.50;99.90;;;;;;5030896;28;20037;-88
2022/11/30 09:02:16;;;;;;;32.10;13.80;;;6.50;99.90;;;;;;5012762;28;20175;-88
2022/11/30 09:04:41;;;;;;;36.03;13.07;;;6.50;99.90;;;;;;5035195;28;20054;-88
2022/11/30 09:07:08;;;;;;;30.73;12.73;;;6.60;99.90;;;;;;5029653;28;20052;-88
2022/11/30 09:09:34;;;;;;;35.47;12.48;;;6.60;99.90;;;;;;5031536;28;20064;-88
2022/11/30 09:12:00;;;;;;;31.58;12.77;;;6.60;99.90;;;;;;5033082;28;20224;-88
2022/11/30 09:14:29;;;;;;;31.95;13.02;;;6.60;99.90;;;;;;5026425;28;20530;-88
2022/11/30 09:16:54;;;;;;;32.20;12.65;;;6.60;99.90;;;;;;5027701;28;20522;-87
2022/11/30 09:19:23;;;;;;;31.07;13.70;;;6.70;99.90;;;;;;5023434;28;20320;-88
2022/11/30 09:21:49;;;;;;;29.35;12.15;;;6.70;99.90;;;;;;5035655;28;20445;-88
2022/11/30 09:24:15;;;;;;;34.30;12.93;;;6.80;99.90;;;;;;5030703;28;20151;-87
2022/11/30 09:26:41;;;;;;;31.77;13.93;;;6.70;99.90;;;;;;5032780;28;20053;-88
2022/11/30 09:29:06;;;;;;;31.17;12.47;;;6.70;99.90;;;;;;5028884;28;20271;-89
2022/11/30 09:31:35;;;;;;;34.00;12.90;;;6.70;99.90;;;;;;5028138;28;20041;-88
2022/11/30 09:34:00;;;;;;;29.98;12.43;;;6.70;99.90;;;;;;5026828;28;20037;-88
2022/11/30 09:36:29;;;;;;;30.60;13.50;;;6.80;99.90;;;;;;5025377;28;20038;-88
2022/11/30 09:38:56;;;;;;;28.55;11.70;;;6.80;99.90;;;;;;5009503;28;20041;-88
2022/11/30 09:41:43;;;;;;;32.08;12.98;;;6.80;99.90;;;;;;5015567;28;20037;-87
2022/11/30 09:44:30;;;;;;;31.10;12.80;;;6.80;99.90;;;;;;5030901;28;20046;-88
2022/11/30 09:47:15;;;;;;;27.00;12.30;;;6.80;99.90;;;;;;5025532;28;20121;-88
2022/11/30 09:49:45;;;;;;;31.63;13.68;;;6.80;99.90;;;;;;5014690;28;20048;-88
2022/11/30 09:52:16;;;;;;;30.58;12.50;;;6.80;99.90;;;;;;5023312;28;20116;-88
2022/11/30 09:54:45;;;;;;;30.33;11.80;;;6.90;99.90;;;;;;5022277;28;20037;-88
2022/11/30 09:57:28;;;;;;;29.80;11.93;;;6.80;99.90;;;;;;5022298;28;20053;-88
2022/11/30 10:00:00;;;;;;;29.33;13.07;;;6.90;99.90;;;;;;5032188;28;20516;-88
2022/11/30 10:02:34;;;;;;;29.70;13.52;;;6.90;99.90;;;;;;5033779;28;20124;-87
2022/11/30 10:05:00;;;;;;;30.27;13.25;;;6.90;99.90;;;;;;5039262;28;20045;-88
2022/11/30 10:07:40;;;;;;;28.48;12.45;;;6.90;99.90;;;;;;5039677;28;20112;-87
2022/11/30 10:10:39;;;;;;;30.20;11.90;;;7.00;99.90;;;;;;5044747;28;20068;-88
2022/11/30 10:13:35;;;;;;;29.95;12.75;;;7.00;99.90;;;;;;5036666;28;20044;-89
2022/11/30 10:16:13;;;;;;;30.75;13.43;;;7.00;99.90;;;;;;5041147;28;20054;-89
2022/11/30 10:18:56;;;;;;;29.95;13.18;;;7.00;99.90;;;;;;5039542;28;20038;-88
2022/11/30 10:22:04;;;;;;;29.40;13.57;;;7.00;99.90;;;;;;5036867;28;20044;-88
2022/11/30 10:24:52;;;;;;;29.33;12.18;;;7.00;99.90;;;;;;5021584;28;20053;-88
2022/11/30 10:27:29;;;;;;;27.65;12.60;;;7.00;99.90;;;;;;5035013;28;20037;-88
2022/11/30 10:30:02;;;;;;;31.35;12.45;;;7.10;99.90;;;;;;5027503;28;20052;-88
2022/11/30 10:32:41;;;;;;;30.52;13.02;;;7.20;99.90;;;;;;5034674;28;20057;-87
2022/11/30 10:35:41;;;;;;;35.88;13.38;;;7.20;99.90;;;;;;5030520;28;20057;-89
2022/11/30 10:38:32;;;;;;;34.28;14.05;;;7.20;99.90;;;;;;5019193;28;20061;-88
2022/11/30 10:41:58;;;;;;;29.20;12.30;;;7.20;99.90;;;;;;5034048;28;20048;-88
2022/11/30 10:44:29;;;;;;;27.77;11.55;;;7.30;99.90;;;;;;4964262;28;20126;-88
2022/11/30 10:47:01;;;;;;;31.33;12.50;;;7.30;99.90;;;;;;4957947;28;20050;-88
2022/11/30 10:49:32;;;;;;;30.20;13.10;;;7.30;99.90;;;;;;5004959;28;20050;-89
2022/11/30 10:52:07;;;;;;;26.92;11.88;;;7.30;99.90;;;;;;5026074;28;20390;-88
2022/11/30 10:54:35;;;;;;;26.52;12.05;;;7.30;99.90;;;;;;5027571;28;20037;-88
2022/11/30 10:57:04;;;;;;;31.58;13.38;;;7.30;99.90;;;;;;5039253;28;20053;-88
2022/11/30 10:59:48;;;;;;;27.70;11.88;;;7.40;99.90;;;;;;5052181;28;20056;-88
2022/11/30 11:02:33;;;;;;;29.98;12.90;;;7.40;99.90;;;;;;5031936;28;20029;-88
2022/11/30 11:05:34;;;;;;;27.17;13.70;;;7.40;99.90;;;;;;5045601;28;20608;-88
2022/11/30 11:08:23;;;;;;;29.88;12.55;;;7.40;99.90;;;;;;5017634;28;20054;-88
2022/11/30 11:10:52;;;;;;;28.75;12.38;;;7.50;99.90;;;;;;5030166;28;20121;-89
2022/11/30 11:13:42;;;;;;;28.17;12.95;;;7.50;99.90;;;;;;5032722;28;20048;-88
2022/11/30 11:16:11;;;;;;;29.17;12.85;;;7.50;99.90;;;;;;5036968;28;20048;-88
2022/11/30 11:18:55;;;;;;;31.83;14.00;;;7.60;99.90;;;;;;5016296;28;20038;-89
2022/11/30 11:21:22;;;;;;;30.20;13.30;;;7.50;99.90;;;;;;5018623;28;20045;-89
2022/11/30 11:24:05;;;;;;;33.58;13.27;;;7.60;99.90;;;;;;5026203;28;20082;-89
2022/11/30 11:26:30;;;;;;;27.90;13.68;;;7.60;99.90;;;;;;5040887;28;20072;-89
2022/11/30 11:29:30;;;;;;;27.50;12.70;;;7.60;99.90;;;;;;5046336;28;20052;-88
2022/11/30 11:32:15;;;;;;;28.52;12.73;;;7.50;99.90;;;;;;5057794;28;20037;-88
2022/11/30 11:34:42;;;;;;;30.98;14.05;;;7.70;99.90;;;;;;5031845;28;20045;-89
2022/11/30 11:37:37;;;;;;;32.42;12.32;;;7.70;99.90;;;;;;5007848;28;20047;-89
2022/11/30 11:40:07;;;;;;;31.38;13.48;;;7.80;99.90;;;;;;5044003;28;20571;-89
2022/11/30 11:42:44;;;;;;;38.22;13.15;;;7.70;99.90;;;;;;5029486;28;20073;-88
2022/11/30 11:45:27;;;;;;;34.45;12.13;;;7.60;99.90;;;;;;5039356;28;20045;-88
2022/11/30 11:48:09;;;;;;;34.30;12.40;;;7.70;99.90;;;;;;5053403;28;20049;-90
2022/11/30 11:50:39;;;;;;;31.70;12.98;;;7.70;99.90;;;;;;5062774;28;20049;-88
2022/11/30 11:53:27;;;;;;;39.95;13.82;;;7.70;99.90;;;;;;5031524;28;20045;-89
2022/11/30 11:56:09;;;;;;;29.13;11.25;;;7.70;99.90;;;;;;5026125;28;20065;-89
2022/11/30 11:58:39;;;;;;;28.45;12.85;;;7.70;99.90;;;;;;5038846;28;20042;-88
2022/11/30 12:01:10;;;;;;;35.15;13.75;;;7.60;99.90;;;;;;5024971;28;20046;-88
2022/11/30 12:04:11;;;;;;;28.95;12.80;;;7.70;99.90;;;;;;5035287;28;20052;-87
2022/11/30 12:06:38;;;;;;;31.73;13.40;;;7.70;99.90;;;;;;5031808;28;20049;-88
2022/11/30 12:09:13;;;;;;;29.58;12.80;;;7.70;99.90;;;;;;5004675;28;20374;-88
2022/11/30 12:15:46;;;;;;;27.52;12.98;;;7.70;99.90;;;;;;5032896;28;20459;-89
2022/11/30 12:18:35;;;;;;;28.05;13.90;;;7.70;99.90;;;;;;5048121;28;20144;-88
2022/11/30 12:22:05;;;;;;;27.40;11.98;;;7.60;99.90;;;;;;5029675;28;20068;-88
2022/11/30 12:25:15;;;;;;;29.42;13.27;;;7.60;99.90;;;;;;5008894;28;20055;-88
2022/11/30 12:31:23;;;;;;;29.42;13.07;;;7.60;99.90;;;;;;5032172;28;20041;-88
2022/11/30 12:34:29;;;;;;;30.30;13.07;;;7.60;99.90;;;;;;5013784;28;20056;-88
2022/11/30 12:37:13;;;;;;;33.83;13.20;;;7.60;99.90;;;;;;5006994;28;20048;-89
2022/11/30 12:40:07;;;;;;;33.92;14.25;;;7.60;99.90;;;;;;5025097;28;20060;-89
2022/11/30 12:43:01;;;;;;;40.60;14.98;;;7.60;99.90;;;;;;5033086;28;20373;-89
2022/11/30 12:45:36;;;;;;;35.28;14.32;;;7.60;99.90;;;;;;5006065;28;20052;-88
2022/11/30 12:48:39;;;;;;;29.38;13.30;;;7.60;99.90;;;;;;5007095;28;20116;-90
2022/11/30 12:51:40;;;;;;;34.33;14.45;;;7.60;99.90;;;;;;5011712;28;20037;-89
2022/11/30 12:54:16;;;;;;;38.67;14.57;;;7.50;99.90;;;;;;5009350;28;20497;-90
2022/11/30 12:56:49;;;;;;;34.38;14.35;;;7.60;99.90;;;;;;5025938;28;20041;-89
2022/11/30 12:59:43;;;;;;;35.63;15.45;;;7.60;99.90;;;;;;5016225;28;20052;-89
2022/11/30 13:02:41;;;;;;;32.03;14.07;;;7.60;99.90;;;;;;5013464;28;20044;-88
2022/11/30 13:05:14;;;;;;;36.10;15.82;;;7.60;99.90;;;;;;5042004;28;20121;-88
2022/11/30 13:08:09;;;;;;;41.40;15.80;;;7.60;99.90;;;;;;5024294;28;20069;-88
2022/11/30 13:10:43;;;;;;;40.35;17.00;;;7.60;99.90;;;;;;5020110;28;20049;-88
2022/11/30 13:13:18;;;;;;;41.22;16.25;;;7.60;99.90;;;;;;5022501;28;20038;-88
2022/11/30 13:15:45;;;;;;;40.35;16.83;;;7.60;99.90;;;;;;5022804;28;20513;-89
2022/11/30 13:18:18;;;;;;;40.53;17.58;;;7.60;99.90;;;;;;5011304;28;20037;-89
2022/11/30 13:20:56;;;;;;;36.42;16.42;;;7.60;99.90;;;;;;5036588;28;20048;-89